createdAt,value
2024-05-09T00:01:04.346Z,102348.56
2024-05-09T00:06:12.607Z,102343.72
2024-05-09T00:11:18.041Z,102351.97
2024-05-09T00:16:23.144Z,102358.28
2024-05-09T00:21:46.010Z,102347.97
2024-05-09T00:26:51.228Z,102360.25
2024-05-09T00:31:56.513Z,102352.03
2024-05-09T00:37:09.054Z,102349.34
2024-05-09T00:42:14.747Z,102335.25
2024-05-09T00:47:19.877Z,102336.50
2024-05-09T00:52:28.053Z,102333.84
2024-05-09T00:57:33.284Z,102329.63
2024-05-09T01:02:39.315Z,102332.78
2024-05-09T01:07:46.928Z,102332.28
2024-05-09T01:12:52.050Z,102334.53
2024-05-09T01:17:57.965Z,102331.97
2024-05-09T01:23:11.158Z,102333.34
2024-05-09T01:28:18.893Z,102339.31
2024-05-09T01:33:24.829Z,102340.72
2024-05-09T01:38:32.540Z,102333.38
2024-05-09T01:43:37.523Z,102337.81
2024-05-09T01:48:42.635Z,102326.94
2024-05-09T01:53:50.669Z,102334.00
2024-05-09T01:58:56.046Z,102325.03
2024-05-09T02:04:01.265Z,102323.31
2024-05-09T02:09:09.089Z,102328.25
2024-05-09T02:14:14.287Z,102330.88
2024-05-09T02:19:19.451Z,102328.25
2024-05-09T02:24:27.343Z,102323.03
2024-05-09T02:29:32.692Z,102324.44
2024-05-09T02:34:37.852Z,102328.25
2024-05-09T02:39:45.552Z,102320.53
2024-05-09T02:44:50.667Z,102325.63
2024-05-09T02:49:55.802Z,102330.56
2024-05-09T02:55:03.398Z,102319.28
2024-05-09T03:00:15.202Z,102322.00
2024-05-09T03:05:24.284Z,102318.09
2024-05-09T03:10:36.209Z,102321.81
2024-05-09T03:28:19.410Z,102319.78
2024-05-09T03:33:29.999Z,102314.47
2024-05-09T03:38:44.294Z,102309.22
2024-05-09T03:43:52.007Z,102310.88
2024-05-09T03:48:57.120Z,102308.22
2024-05-09T03:54:02.283Z,102312.94
2024-05-09T03:59:09.923Z,102310.53
2024-05-09T04:04:15.048Z,102304.56
2024-05-09T04:09:20.143Z,102312.75
2024-05-09T04:14:27.804Z,102311.72
2024-05-09T04:19:33.561Z,102306.13
2024-05-09T04:24:39.607Z,102312.84
2024-05-09T04:29:48.312Z,102307.69
2024-05-09T04:35:18.312Z,102307.53
2024-05-09T04:40:30.796Z,102306.31
2024-05-09T04:45:41.375Z,102310.25
2024-05-09T04:50:46.349Z,102311.97
2024-05-09T04:55:51.504Z,102311.16
2024-05-09T05:00:59.270Z,102318.34
2024-05-09T05:06:04.457Z,102320.47
2024-05-09T05:11:09.680Z,102313.66
2024-05-09T05:16:20.574Z,102310.94
2024-05-09T05:21:26.482Z,102328.63
2024-05-09T05:26:32.404Z,102320.06
2024-05-09T06:15:14.201Z,102309.69
2024-05-09T06:27:08.914Z,102313.31
2024-05-09T06:32:20.715Z,102296.44
2024-05-09T06:38:19.242Z,102294.00
2024-05-09T06:44:36.983Z,102302.34
2024-05-09T06:50:23.359Z,102299.88
2024-05-09T06:55:32.788Z,102306.16
2024-05-09T11:09:26.696Z,102196.00
2024-05-09T11:34:33.132Z,102181.28
2024-05-09T12:26:06.223Z,102142.06
2024-05-09T12:38:29.282Z,102130.25
2024-05-09T12:43:55.840Z,102130.22
2024-05-09T12:50:01.853Z,102123.28
2024-05-09T12:56:28.824Z,102118.72
2024-05-09T13:01:50.379Z,102111.59
2024-05-09T13:06:57.324Z,102101.38
2024-05-09T13:12:12.971Z,102107.19
2024-05-09T16:05:30.636Z,102020.22
2024-05-09T16:44:50.349Z,102023.72
2024-05-09T17:08:05.934Z,102006.56
2024-05-09T17:13:47.976Z,102010.94
2024-05-09T18:19:43.889Z,102017.66
2024-05-09T19:08:42.211Z,102035.66
2024-05-09T19:14:00.159Z,102031.00
2024-05-09T19:49:27.196Z,102034.34
2024-05-09T19:54:32.265Z,102037.84
2024-05-09T19:59:37.384Z,102029.69
2024-05-09T20:04:46.640Z,102031.84
2024-05-09T20:09:58.765Z,102025.69
2024-05-09T20:15:04.975Z,102023.81
2024-05-09T20:20:24.656Z,102026.56
2024-05-09T20:25:38.411Z,102027.09
2024-05-09T20:30:44.763Z,102028.59
2024-05-09T20:35:55.416Z,102035.72
2024-05-09T20:41:03.268Z,102031.25
2024-05-09T20:46:11.855Z,102027.44
2024-05-09T20:51:19.641Z,102025.84
2024-05-09T20:56:24.967Z,102032.03
2024-05-09T21:01:30.042Z,102038.34
2024-05-09T21:30:48.207Z,102045.47
2024-05-09T21:35:53.502Z,102055.38
2024-05-09T21:40:58.959Z,102050.22
2024-05-09T21:46:07.235Z,102048.94
2024-05-09T21:51:16.779Z,102032.47
2024-05-09T21:56:21.814Z,102030.75
2024-05-09T22:01:29.607Z,102028.94
2024-05-09T22:06:34.711Z,102026.59
2024-05-09T22:11:41.135Z,102020.84
2024-05-09T22:16:48.793Z,102010.38
2024-05-09T22:21:55.386Z,102010.56
2024-05-09T22:27:00.505Z,102000.34
2024-05-09T22:32:08.615Z,102000.19
2024-05-09T22:37:13.560Z,101977.06
2024-05-09T22:42:18.691Z,101988.41
2024-05-09T22:47:26.529Z,101992.56
2024-05-09T22:52:31.552Z,101989.13
2024-05-09T22:57:36.662Z,101985.47
2024-05-09T23:02:44.796Z,101990.63
2024-05-09T23:07:49.957Z,102003.66
2024-05-09T23:12:55.087Z,101999.41
2024-05-09T23:18:03.034Z,101990.25
2024-05-09T23:23:08.744Z,101998.63
2024-05-09T23:28:14.682Z,101984.59
2024-05-09T23:33:22.454Z,101996.38
2024-05-09T23:38:27.514Z,101986.88
2024-05-09T23:43:32.497Z,101982.06
2024-05-09T23:48:40.369Z,101986.28
2024-05-09T23:53:47.890Z,101978.91
2024-05-09T23:58:52.971Z,101969.00
